createdAt,value
2017-12-14T00:00:53.340Z,89.10
2017-12-14T00:03:20.888Z,89.00
2017-12-14T00:05:49.165Z,89.10
2017-12-14T00:08:16.704Z,89.10
2017-12-14T00:10:44.216Z,88.70
2017-12-14T00:13:11.756Z,89.50
2017-12-14T00:15:39.256Z,89.80
2017-12-14T00:18:06.808Z,90.00
2017-12-14T00:20:34.312Z,90.30
2017-12-14T00:23:02.584Z,90.30
2017-12-14T00:25:30.121Z,90.30
2017-12-14T00:27:57.627Z,90.30
2017-12-14T00:30:25.185Z,90.50
2017-12-14T00:32:52.712Z,90.40
2017-12-14T00:35:20.265Z,90.50
2017-12-14T00:37:48.540Z,90.50
2017-12-14T00:40:16.085Z,90.50
2017-12-14T00:42:43.588Z,90.70
2017-12-14T00:45:11.152Z,90.50
2017-12-14T00:47:38.664Z,90.50
2017-12-14T00:50:06.180Z,90.80
2017-12-14T00:52:33.720Z,91.10
2017-12-14T00:55:01.236Z,91.20
2017-12-14T00:57:28.787Z,91.40
2017-12-14T00:59:56.304Z,91.70
2017-12-14T01:02:23.857Z,90.80
2017-12-14T01:04:51.374Z,90.80
2017-12-14T01:07:18.916Z,90.40
2017-12-14T01:09:47.196Z,90.40
2017-12-14T01:12:14.740Z,90.40
2017-12-14T01:14:42.257Z,90.50
2017-12-14T01:17:09.825Z,90.60
2017-12-14T01:19:38.100Z,90.70
2017-12-14T01:22:05.612Z,90.70
2017-12-14T01:24:33.227Z,90.90
2017-12-14T01:27:00.796Z,90.90
2017-12-14T01:29:28.308Z,90.80
2017-12-14T01:31:55.832Z,90.90
2017-12-14T01:34:23.379Z,90.80
2017-12-14T01:36:50.901Z,90.80
2017-12-14T01:39:18.443Z,90.80
2017-12-14T01:41:45.956Z,90.50
2017-12-14T01:44:13.512Z,89.50
2017-12-14T01:46:41.028Z,89.10
2017-12-14T01:49:08.568Z,88.90
2017-12-14T01:51:36.845Z,88.70
2017-12-14T01:54:04.397Z,88.70
2017-12-14T01:56:31.912Z,88.50
2017-12-14T01:59:00.217Z,88.90
2017-12-14T02:01:27.736Z,88.90
2017-12-14T02:03:55.298Z,88.50
2017-12-14T02:06:22.805Z,88.60
2017-12-14T02:08:50.317Z,88.40
2017-12-14T02:11:17.860Z,88.10
2017-12-14T02:13:46.137Z,88.70
2017-12-14T02:19:04.116Z,88.50
2017-12-14T02:21:31.669Z,87.80
2017-12-14T02:23:59.180Z,87.40
2017-12-14T02:26:27.491Z,88.00
2017-12-14T02:28:55.052Z,88.00
2017-12-14T02:31:22.611Z,88.40
2017-12-14T02:33:50.901Z,89.50
2017-12-14T02:36:18.458Z,89.50
2017-12-14T02:38:45.974Z,89.40
2017-12-14T02:41:13.537Z,88.60
2017-12-14T02:43:41.097Z,89.00
2017-12-14T02:46:08.660Z,89.10
2017-12-14T02:48:36.941Z,90.40
2017-12-14T02:51:05.221Z,90.70
2017-12-14T02:53:32.784Z,90.70
2017-12-14T02:56:00.291Z,91.10
2017-12-14T02:58:27.835Z,91.40
2017-12-14T03:00:55.352Z,91.70
2017-12-14T03:03:22.914Z,91.90
2017-12-14T03:05:50.448Z,92.10
2017-12-14T03:08:18.017Z,92.30
2017-12-14T03:10:45.538Z,92.50
2017-12-14T03:13:13.086Z,92.60
2017-12-14T03:15:41.414Z,92.40
2017-12-14T03:18:08.946Z,92.40
2017-12-14T03:20:37.267Z,91.80
2017-12-14T03:23:04.780Z,91.80
2017-12-14T03:25:32.337Z,91.60
2017-12-14T03:27:59.849Z,91.60
2017-12-14T03:30:28.177Z,91.60
2017-12-14T03:32:56.737Z,91.60
2017-12-14T03:35:25.077Z,91.70
2017-12-14T03:37:52.581Z,91.70
2017-12-14T03:40:20.097Z,92.00
2017-12-14T03:42:47.644Z,91.70
2017-12-14T03:45:15.938Z,91.30
2017-12-14T03:47:44.249Z,91.20
2017-12-14T03:50:11.816Z,91.20
2017-12-14T03:52:39.362Z,90.80
2017-12-14T03:55:06.883Z,90.80
2017-12-14T03:57:34.430Z,90.50
2017-12-14T04:00:01.946Z,90.60
2017-12-14T04:02:29.504Z,90.90
2017-12-14T04:04:57.033Z,90.80
2017-12-14T04:07:25.313Z,90.90
2017-12-14T04:09:53.622Z,90.80
2017-12-14T04:12:21.133Z,90.80
2017-12-14T04:14:48.682Z,90.70
2017-12-14T04:17:16.200Z,90.20
2017-12-14T04:19:43.761Z,90.30
2017-12-14T04:22:11.268Z,90.20
2017-12-14T04:24:39.589Z,90.20
2017-12-14T04:27:07.108Z,90.20
2017-12-14T04:29:34.660Z,90.10
2017-12-14T04:32:02.200Z,90.00
2017-12-14T04:34:29.757Z,90.10
2017-12-14T04:36:57.282Z,90.20
2017-12-14T04:39:24.809Z,90.00
2017-12-14T04:41:52.356Z,90.30
2017-12-14T04:44:20.644Z,90.00
2017-12-14T04:46:48.205Z,90.00
2017-12-14T04:49:16.500Z,90.90
2017-12-14T04:51:44.053Z,90.90
2017-12-14T04:54:11.570Z,90.90
2017-12-14T04:56:39.114Z,91.30
2017-12-14T04:59:06.634Z,91.60
2017-12-14T05:01:34.202Z,91.80
2017-12-14T05:04:01.718Z,92.00
2017-12-14T05:06:29.245Z,92.20
2017-12-14T05:08:56.852Z,92.30
2017-12-14T05:11:24.373Z,92.40
2017-12-14T05:13:51.921Z,92.30
2017-12-14T05:16:19.497Z,92.20
2017-12-14T05:18:47.041Z,92.00
2017-12-14T05:21:15.453Z,92.10
2017-12-14T05:23:42.995Z,92.40
2017-12-14T05:26:10.533Z,92.50
2017-12-14T05:28:38.081Z,92.40
2017-12-14T05:31:06.361Z,91.30
2017-12-14T05:33:34.069Z,91.20
2017-12-14T05:36:01.554Z,90.60
2017-12-14T05:38:29.092Z,90.00
2017-12-14T05:40:57.423Z,85.90
2017-12-14T05:43:24.954Z,85.90
2017-12-14T05:45:52.520Z,84.00
2017-12-14T05:48:20.047Z,82.50
2017-12-14T05:50:47.601Z,81.40
2017-12-14T05:53:15.124Z,80.70
2017-12-14T05:55:42.701Z,79.10
2017-12-14T05:58:10.241Z,77.90
2017-12-14T06:00:37.758Z,76.80
2017-12-14T06:03:05.311Z,76.30
2017-12-14T06:05:32.831Z,75.10
2017-12-14T06:08:00.400Z,75.60
2017-12-14T06:10:27.909Z,75.20
2017-12-14T06:12:55.460Z,74.80
2017-12-14T06:15:22.974Z,74.40
2017-12-14T06:17:50.536Z,74.30
2017-12-14T06:20:18.069Z,74.20
2017-12-14T06:22:45.628Z,74.20
2017-12-14T06:25:13.142Z,73.80
2017-12-14T06:27:40.716Z,73.50
2017-12-14T06:30:08.233Z,73.50
2017-12-14T06:32:36.516Z,74.50
2017-12-14T06:35:04.077Z,74.50
2017-12-14T06:37:31.593Z,74.50
2017-12-14T06:39:59.138Z,73.10
2017-12-14T06:42:27.439Z,72.50
2017-12-14T06:44:55.003Z,72.40
2017-12-14T06:47:22.524Z,73.10
2017-12-14T06:49:50.099Z,73.50
2017-12-14T06:52:17.621Z,73.30
2017-12-14T06:54:45.140Z,72.60
2017-12-14T06:57:12.710Z,72.30
2017-12-14T06:59:40.232Z,73.10
2017-12-14T07:02:08.562Z,73.20
2017-12-14T07:04:36.093Z,73.20
2017-12-14T07:07:03.649Z,73.40
2017-12-14T07:09:31.182Z,74.40
2017-12-14T07:11:58.732Z,74.80
2017-12-14T07:14:26.249Z,75.30
2017-12-14T07:16:53.814Z,75.90
2017-12-14T07:19:21.341Z,76.20
2017-12-14T07:21:49.186Z,76.30
2017-12-14T07:24:16.740Z,76.20
2017-12-14T07:26:44.277Z,76.90
2017-12-14T07:29:11.820Z,76.70
2017-12-14T07:31:39.332Z,76.80
2017-12-14T07:34:06.899Z,77.20
2017-12-14T07:36:34.412Z,77.60
2017-12-14T07:39:01.964Z,77.20
2017-12-14T07:41:29.472Z,76.80
2017-12-14T07:44:09.612Z,76.50
2017-12-14T07:46:48.837Z,76.50
2017-12-14T07:49:24.044Z,76.30
2017-12-14T07:51:52.324Z,77.00
2017-12-14T07:54:20.644Z,77.40
2017-12-14T07:56:48.174Z,77.40
2017-12-14T07:59:15.693Z,77.20
2017-12-14T08:01:43.252Z,77.70
2017-12-14T08:04:10.766Z,77.20
2017-12-14T08:06:38.320Z,77.20
2017-12-14T08:09:05.849Z,77.30
2017-12-14T08:11:34.186Z,79.50
2017-12-14T08:14:01.729Z,79.50
2017-12-14T08:16:29.284Z,80.40
2017-12-14T08:18:57.565Z,81.30
2017-12-14T08:21:25.910Z,82.60
2017-12-14T08:23:53.428Z,81.80
2017-12-14T08:26:20.957Z,81.50
2017-12-14T08:28:48.516Z,81.80
2017-12-14T08:31:16.056Z,80.10
2017-12-14T08:33:44.393Z,80.40
2017-12-14T08:36:11.906Z,80.40
2017-12-14T08:38:39.493Z,80.00
2017-12-14T08:41:07.769Z,80.00
2017-12-14T08:43:35.327Z,80.00
2017-12-14T08:46:02.849Z,80.60
2017-12-14T08:48:30.424Z,80.90
2017-12-14T08:50:57.946Z,80.10
2017-12-14T08:53:25.509Z,79.50
2017-12-14T08:55:53.038Z,79.60
2017-12-14T08:58:20.552Z,78.90
2017-12-14T09:00:48.104Z,78.90
2017-12-14T09:03:15.624Z,79.40
2017-12-14T09:05:43.937Z,78.90
2017-12-14T09:08:11.478Z,78.90
2017-12-14T09:10:39.032Z,79.50
2017-12-14T09:13:06.577Z,79.50
2017-12-14T09:15:34.127Z,79.80
2017-12-14T09:18:01.658Z,79.90
2017-12-14T09:20:29.224Z,80.70
2017-12-14T09:22:56.745Z,80.80
2017-12-14T09:25:24.293Z,80.00
2017-12-14T09:27:52.633Z,77.60
2017-12-14T09:30:20.191Z,77.50
2017-12-14T09:32:47.714Z,75.10
2017-12-14T09:35:15.286Z,72.30
2017-12-14T09:37:42.806Z,73.60
2017-12-14T09:40:10.328Z,73.80
2017-12-14T09:42:37.878Z,74.60
2017-12-14T09:45:05.396Z,76.00
2017-12-14T09:47:32.940Z,75.60
2017-12-14T09:50:00.456Z,76.50
2017-12-14T09:52:28.009Z,76.90
2017-12-14T09:54:56.289Z,77.30
2017-12-14T09:57:24.617Z,77.40
2017-12-14T09:59:52.124Z,77.40
2017-12-14T10:02:19.720Z,77.80
2017-12-14T10:04:48.006Z,79.00
2017-12-14T10:07:15.553Z,78.20
2017-12-14T10:09:43.060Z,78.10
2017-12-14T10:12:10.624Z,77.90
2017-12-14T10:14:38.145Z,78.90
2017-12-14T10:17:05.669Z,78.40
2017-12-14T10:19:33.221Z,78.30
2017-12-14T10:22:00.732Z,78.10
2017-12-14T10:24:28.285Z,78.00
2017-12-14T10:26:56.565Z,78.80
2017-12-14T10:29:24.119Z,78.70
2017-12-14T10:31:51.641Z,78.60
2017-12-14T10:34:19.215Z,79.60
2017-12-14T10:36:46.746Z,80.30
2017-12-14T10:39:14.305Z,81.10
2017-12-14T10:41:41.822Z,81.70
2017-12-14T10:44:10.149Z,83.50
2017-12-14T10:46:37.673Z,83.40
2017-12-14T10:49:05.952Z,86.80
2017-12-14T10:51:33.505Z,86.80
2017-12-14T10:54:01.024Z,87.00
2017-12-14T10:56:28.569Z,87.30
2017-12-14T10:58:56.084Z,89.20
2017-12-14T11:01:30.228Z,89.80
2017-12-14T11:03:57.728Z,89.50
2017-12-14T11:06:25.292Z,90.00
2017-12-14T11:08:52.820Z,89.00
2017-12-14T11:11:20.385Z,89.50
2017-12-14T11:13:47.920Z,90.20
2017-12-14T11:16:15.438Z,89.20
2017-12-14T11:18:42.989Z,90.10
2017-12-14T11:21:11.272Z,90.50
2017-12-14T11:23:39.616Z,90.50
2017-12-14T11:26:07.144Z,90.50
2017-12-14T11:28:34.700Z,90.00
2017-12-14T11:31:02.229Z,89.70
2017-12-14T11:33:29.799Z,88.30
2017-12-14T11:35:57.325Z,89.20
2017-12-14T11:38:25.656Z,86.70
2017-12-14T11:40:53.180Z,86.70
2017-12-14T11:43:21.499Z,86.70
2017-12-14T11:45:49.061Z,86.00
2017-12-14T11:48:16.592Z,85.80
2017-12-14T11:50:44.141Z,85.60
2017-12-14T11:53:11.673Z,85.40
2017-12-14T11:55:39.247Z,84.40
2017-12-14T11:58:07.634Z,85.40
2017-12-14T12:00:35.957Z,83.30
2017-12-14T12:03:03.481Z,83.30
2017-12-14T12:05:31.803Z,82.30
2017-12-14T12:07:59.316Z,82.30
2017-12-14T12:10:26.900Z,81.90
2017-12-14T12:12:54.420Z,81.80
2017-12-14T12:15:21.953Z,79.60
2017-12-14T12:17:49.504Z,81.10
2017-12-14T12:20:17.177Z,81.50
2017-12-14T12:22:44.801Z,80.40
2017-12-14T12:25:12.367Z,80.80
2017-12-14T12:27:39.937Z,80.70
2017-12-14T12:30:17.524Z,81.30
2017-12-14T12:32:45.079Z,80.80
2017-12-14T12:35:13.491Z,81.10
2017-12-14T12:37:41.087Z,81.80
2017-12-14T12:40:08.720Z,81.90
2017-12-14T12:42:37.052Z,82.10
2017-12-14T12:45:04.629Z,82.10
2017-12-14T12:47:32.965Z,82.00
2017-12-14T12:50:00.650Z,82.60
2017-12-14T12:52:28.168Z,82.50
2017-12-14T12:54:55.773Z,82.40
2017-12-14T12:57:23.293Z,82.40
2017-12-14T12:59:50.873Z,83.10
2017-12-14T13:02:19.153Z,83.20
2017-12-14T13:04:46.717Z,83.20
2017-12-14T13:07:14.230Z,83.40
2017-12-14T13:09:41.749Z,83.20
2017-12-14T13:12:09.308Z,84.00
2017-12-14T13:14:36.824Z,83.80
2017-12-14T13:17:05.148Z,83.80
2017-12-14T13:19:32.661Z,83.80
2017-12-14T13:22:00.213Z,83.70
2017-12-14T13:24:27.859Z,84.40
2017-12-14T13:26:55.412Z,84.70
2017-12-14T13:29:23.685Z,84.40
2017-12-14T13:31:52.039Z,84.80
2017-12-14T13:34:19.565Z,84.80
2017-12-14T13:36:47.129Z,83.70
2017-12-14T13:39:14.646Z,83.20
2017-12-14T13:41:42.201Z,82.60
2017-12-14T13:44:09.713Z,81.50
2017-12-14T13:46:37.272Z,80.40
2017-12-14T13:49:04.793Z,80.00
2017-12-14T13:51:32.302Z,79.50
2017-12-14T13:53:59.855Z,79.40
2017-12-14T13:56:27.363Z,78.60
2017-12-14T13:58:54.969Z,78.10
2017-12-14T14:01:22.485Z,78.40
2017-12-14T14:03:50.048Z,77.50
2017-12-14T14:06:17.585Z,78.30
2017-12-14T14:08:46.121Z,77.50
2017-12-14T14:11:13.633Z,77.50
2017-12-14T14:13:41.186Z,78.90
2017-12-14T14:16:08.712Z,79.10
2017-12-14T14:18:36.277Z,79.60
2017-12-14T14:21:04.557Z,80.80
2017-12-14T14:23:32.065Z,80.70
2017-12-14T14:25:59.617Z,80.70
2017-12-14T14:28:27.899Z,81.50
2017-12-14T14:30:56.216Z,82.00
2017-12-14T14:33:24.497Z,82.50
2017-12-14T14:35:52.052Z,82.60
2017-12-14T14:38:20.333Z,83.70
2017-12-14T14:40:48.669Z,82.90
2017-12-14T14:43:16.261Z,82.90
2017-12-14T14:45:43.851Z,83.50
2017-12-14T14:48:11.365Z,83.90
2017-12-14T14:50:38.910Z,84.60
2017-12-14T14:53:06.445Z,84.80
2017-12-14T14:55:34.006Z,84.50
2017-12-14T14:58:02.329Z,84.90
2017-12-14T15:00:29.856Z,84.80
2017-12-14T15:02:57.401Z,84.80
2017-12-14T15:05:25.704Z,83.90
2017-12-14T15:07:54.019Z,84.20
2017-12-14T15:10:21.550Z,84.20
2017-12-14T15:12:49.869Z,84.60
2017-12-14T15:15:17.385Z,84.50
2017-12-14T15:17:44.941Z,83.80
2017-12-14T15:20:12.502Z,84.20
2017-12-14T15:22:40.053Z,84.00
2017-12-14T15:25:07.569Z,84.60
2017-12-14T15:27:35.907Z,83.90
2017-12-14T15:30:03.574Z,84.10
2017-12-14T15:32:31.921Z,83.60
2017-12-14T15:34:59.431Z,83.70
2017-12-14T15:37:27.713Z,84.20
2017-12-14T15:39:55.267Z,84.20
2017-12-14T15:42:22.784Z,84.70
2017-12-14T15:44:50.347Z,85.10
2017-12-14T15:47:17.885Z,85.20
2017-12-14T15:49:45.449Z,85.00
2017-12-14T15:52:12.982Z,85.10
2017-12-14T15:54:40.534Z,85.70
2017-12-14T15:57:08.812Z,87.20
2017-12-14T15:59:36.398Z,87.20
2017-12-14T16:02:04.690Z,88.30
2017-12-14T16:04:32.270Z,88.30
2017-12-14T16:06:59.789Z,87.30
2017-12-14T16:09:27.364Z,87.50
2017-12-14T16:11:54.886Z,87.50
2017-12-14T16:14:22.405Z,87.30
2017-12-14T16:16:49.956Z,87.20
2017-12-14T16:19:17.489Z,87.10
2017-12-14T16:21:45.058Z,87.30
2017-12-14T16:24:13.356Z,88.10
2017-12-14T16:26:40.904Z,88.10
2017-12-14T16:29:08.427Z,88.70
2017-12-14T16:31:35.973Z,88.80
2017-12-14T16:34:04.267Z,88.80
2017-12-14T16:36:31.835Z,88.80
2017-12-14T16:39:00.160Z,88.60
2017-12-14T16:41:27.677Z,88.60
2017-12-14T16:43:55.222Z,88.20
2017-12-14T16:46:22.735Z,87.60
2017-12-14T16:48:50.285Z,86.90
2017-12-14T16:51:17.800Z,87.20
2017-12-14T16:53:45.348Z,87.10
2017-12-14T16:56:13.628Z,87.90
2017-12-14T16:58:41.949Z,88.70
2017-12-14T17:01:09.481Z,88.10
2017-12-14T17:03:37.056Z,88.00
2017-12-14T17:06:04.577Z,88.00
2017-12-14T17:08:32.093Z,88.60
2017-12-14T17:10:59.695Z,88.90
2017-12-14T17:13:27.214Z,89.20
2017-12-14T17:15:54.801Z,89.10
2017-12-14T17:18:22.325Z,88.90
2017-12-14T17:20:49.881Z,88.20
2017-12-14T17:23:17.419Z,88.30
2017-12-14T17:25:44.960Z,88.60
2017-12-14T17:28:12.495Z,89.10
2017-12-14T17:30:40.817Z,89.10
2017-12-14T17:33:08.353Z,89.10
2017-12-14T17:35:36.668Z,90.00
2017-12-14T17:38:04.205Z,90.00
2017-12-14T17:40:31.764Z,90.30
2017-12-14T17:42:59.293Z,90.50
2017-12-14T17:45:26.818Z,90.70
2017-12-14T17:47:54.370Z,90.60
2017-12-14T17:50:21.915Z,90.80
2017-12-14T17:52:49.478Z,90.70
2017-12-14T17:55:17.021Z,90.40
2017-12-14T17:57:45.333Z,90.30
2017-12-14T18:00:12.851Z,90.30
2017-12-14T18:02:40.413Z,90.40
2017-12-14T18:05:07.947Z,90.50
2017-12-14T18:07:35.501Z,90.20
2017-12-14T18:10:03.776Z,90.10
2017-12-14T18:12:31.357Z,90.10
2017-12-14T18:14:59.638Z,90.00
2017-12-14T18:17:27.165Z,90.00
2017-12-14T18:19:54.721Z,90.00
2017-12-14T18:22:22.269Z,90.00
2017-12-14T18:24:50.599Z,90.00
2017-12-14T18:27:18.121Z,90.00
2017-12-14T18:29:45.672Z,90.20
2017-12-14T18:32:13.192Z,90.20
2017-12-14T18:34:40.741Z,90.10
2017-12-14T18:37:09.021Z,89.60
2017-12-14T18:39:36.577Z,89.60
2017-12-14T18:42:04.093Z,89.00
2017-12-14T18:44:31.615Z,88.80
2017-12-14T18:46:59.192Z,88.60
2017-12-14T18:49:26.703Z,88.80
2017-12-14T18:51:54.269Z,88.70
2017-12-14T18:54:22.562Z,89.20
2017-12-14T18:56:50.116Z,89.20
2017-12-14T18:59:17.628Z,89.10
2017-12-14T19:01:45.303Z,89.90
2017-12-14T19:04:12.828Z,89.20
2017-12-14T19:06:40.390Z,89.10
2017-12-14T19:09:07.924Z,88.30
2017-12-14T19:11:35.483Z,88.90
2017-12-14T19:14:03.067Z,88.70
2017-12-14T19:16:30.629Z,88.80
2017-12-14T19:18:58.155Z,88.90
2017-12-14T19:21:25.671Z,89.10
2017-12-14T19:23:53.224Z,89.20
2017-12-14T19:26:21.505Z,89.60
2017-12-14T19:28:49.053Z,89.60
2017-12-14T19:31:16.576Z,89.50
2017-12-14T19:33:44.136Z,89.70
2017-12-14T19:36:12.431Z,88.90
2017-12-14T19:38:39.989Z,89.00
2017-12-14T19:41:08.516Z,89.20
2017-12-14T19:43:36.106Z,89.20
2017-12-14T19:46:03.626Z,89.50
2017-12-14T19:48:31.946Z,89.80
2017-12-14T19:51:00.278Z,89.80
2017-12-14T19:53:27.789Z,89.90
2017-12-14T19:55:56.106Z,89.00
2017-12-14T19:58:23.626Z,89.00
2017-12-14T20:00:51.241Z,89.10
2017-12-14T20:03:18.736Z,89.10
2017-12-14T20:05:46.301Z,88.80
2017-12-14T20:08:13.828Z,88.80
2017-12-14T20:10:42.143Z,89.10
2017-12-14T20:13:09.668Z,88.80
2017-12-14T20:15:37.307Z,89.20
2017-12-14T20:18:04.832Z,89.20
2017-12-14T20:20:32.373Z,88.80
2017-12-14T20:22:59.945Z,89.30
2017-12-14T20:25:27.709Z,88.60
2017-12-14T20:27:55.265Z,88.70
2017-12-14T20:30:22.817Z,89.10
2017-12-14T20:32:50.369Z,89.50
2017-12-14T20:35:17.890Z,89.70
2017-12-14T20:37:45.442Z,90.20
2017-12-14T20:40:12.971Z,90.00
2017-12-14T20:42:40.521Z,90.20
2017-12-14T20:45:08.049Z,90.30
2017-12-14T20:47:36.369Z,90.30
2017-12-14T20:50:03.893Z,90.30
2017-12-14T20:52:31.498Z,90.50
2017-12-14T20:54:59.013Z,90.80
2017-12-14T20:57:26.541Z,91.00
2017-12-14T20:59:54.104Z,91.30
2017-12-14T21:02:21.616Z,91.50
2017-12-14T21:04:49.175Z,91.60
2017-12-14T21:07:16.692Z,91.50
2017-12-14T21:09:44.256Z,91.70
2017-12-14T21:12:11.777Z,91.90
2017-12-14T21:14:39.345Z,92.00
2017-12-14T21:17:06.861Z,92.20
2017-12-14T21:19:34.416Z,92.50
2017-12-14T21:22:01.941Z,92.70
2017-12-14T21:24:30.253Z,92.40
2017-12-14T21:26:57.782Z,92.40
2017-12-14T21:29:25.343Z,92.20
2017-12-14T21:31:52.868Z,92.40
2017-12-14T21:34:20.456Z,92.30
2017-12-14T21:36:48.017Z,92.40
2017-12-14T21:39:15.537Z,92.30
2017-12-14T21:41:43.146Z,92.30
2017-12-14T21:44:10.638Z,92.00
2017-12-14T21:46:38.188Z,91.90
2017-12-14T21:49:05.714Z,91.70
2017-12-14T21:51:33.266Z,91.70
2017-12-14T21:54:00.795Z,91.90
2017-12-14T21:56:29.123Z,91.80
2017-12-14T21:58:56.650Z,91.80
2017-12-14T22:01:25.018Z,92.00
2017-12-14T22:03:52.544Z,92.00
2017-12-14T22:06:20.122Z,92.20
2017-12-14T22:08:47.645Z,92.30
2017-12-14T22:11:15.182Z,92.50
2017-12-14T22:13:42.728Z,92.40
2017-12-14T22:16:10.251Z,92.50
2017-12-14T22:18:37.806Z,92.40
2017-12-14T22:21:05.331Z,92.20
2017-12-14T22:23:33.650Z,92.30
2017-12-14T22:26:01.161Z,92.30
2017-12-14T22:28:28.718Z,92.20
2017-12-14T22:30:56.243Z,92.40
2017-12-14T22:33:23.797Z,92.60
2017-12-14T22:35:52.072Z,93.00
2017-12-14T22:38:19.791Z,92.90
2017-12-14T22:40:47.314Z,93.10
2017-12-14T22:43:14.829Z,93.30
2017-12-14T22:45:42.385Z,93.30
2017-12-14T22:48:09.900Z,93.40
2017-12-14T22:50:37.450Z,93.50
2017-12-14T22:53:04.969Z,93.50
2017-12-14T22:55:32.509Z,93.60
2017-12-14T22:58:00.020Z,93.50
2017-12-14T23:00:27.573Z,93.60
2017-12-14T23:02:55.105Z,93.70
2017-12-14T23:05:22.674Z,93.80
2017-12-14T23:07:50.201Z,93.80
2017-12-14T23:10:17.712Z,93.90
2017-12-14T23:12:46.026Z,94.10
2017-12-14T23:15:13.737Z,94.10
2017-12-14T23:17:41.296Z,94.10
2017-12-14T23:20:08.810Z,94.20
2017-12-14T23:22:37.137Z,94.30
2017-12-14T23:25:04.676Z,94.30
2017-12-14T23:27:32.241Z,94.50
2017-12-14T23:30:00.521Z,94.80
2017-12-14T23:32:28.041Z,94.80
2017-12-14T23:34:55.585Z,95.00
2017-12-14T23:37:23.115Z,95.00
2017-12-14T23:39:50.661Z,94.90
2017-12-14T23:42:18.180Z,94.80
2017-12-14T23:44:45.738Z,94.80
2017-12-14T23:47:13.254Z,94.80
2017-12-14T23:49:40.806Z,94.70
2017-12-14T23:52:09.091Z,94.40
2017-12-14T23:54:36.629Z,94.40
2017-12-14T23:57:04.145Z,94.40
2017-12-14T23:59:32.457Z,94.30
